Terminal Aerodrome Forecast
Issued by NWS

Home | Current Version | Previous Version | Graphics & Text | Print | Product List | Glossary On
Versions: 1 2 3 4 5 6 7 8 9 10 11 12
569
FTUS43 KICT 070526
TAFCNU
TAF
KCNU 070526Z 0706/0806 21010KT P6SM SCT250
     FM071400 26008KT P6SM SCT200
     FM071700 30013KT P6SM BKN200
     FM071900 31022G29KT P6SM SCT200
     FM080000 30014G21KT P6SM FEW250=

USA.gov is the U.S. government's official web portal to all federal, state and local government web resources and services.